createdAt,value
2022-08-05T00:01:53.205Z,39.67
2022-08-05T00:04:56.068Z,38.78
2022-08-05T00:07:59.717Z,39.22
2022-08-05T00:11:20.259Z,38.85
2022-08-05T00:14:27.587Z,38.90
2022-08-05T00:17:31.569Z,40.15
2022-08-05T00:20:35.222Z,38.03
2022-08-05T00:23:46.596Z,41.28
2022-08-05T00:26:55.411Z,43.13
2022-08-05T00:29:57.793Z,43.65
2022-08-05T00:33:02.471Z,40.33
2022-08-05T00:36:15.035Z,38.50
2022-08-05T00:39:27.032Z,37.42
2022-08-05T00:42:42.051Z,45.45
2022-08-05T00:45:50.470Z,43.00
2022-08-05T00:48:54.877Z,41.70
2022-08-05T00:51:59.587Z,41.35
2022-08-05T00:55:01.575Z,41.65
2022-08-05T00:58:04.701Z,41.03
2022-08-05T01:04:13.886Z,48.47
2022-08-05T01:07:17.957Z,71.80
2022-08-05T01:10:27.668Z,56.13
2022-08-05T01:13:57.577Z,49.42
2022-08-05T01:17:06.056Z,60.60
2022-08-05T01:20:37.203Z,54.95
2022-08-05T01:24:13.371Z,55.03
2022-08-05T01:27:54.976Z,76.57
2022-08-05T01:31:21.922Z,68.05
2022-08-05T01:34:29.839Z,92.47
2022-08-05T01:37:44.478Z,75.38
2022-08-05T01:40:47.325Z,71.20
2022-08-05T01:43:52.391Z,74.35
2022-08-05T01:46:55.782Z,81.40
2022-08-05T01:50:01.835Z,66.20
2022-08-05T01:53:12.438Z,60.28
2022-08-05T01:58:12.658Z,82.50
2022-08-05T01:59:42.027Z,78.15
2022-08-05T02:02:55.375Z,99.97
2022-08-05T02:05:59.853Z,111.68
2022-08-05T02:09:03.652Z,87.85
2022-08-05T02:12:37.197Z,125.75
2022-08-05T02:15:54.023Z,96.60
2022-08-05T02:19:27.927Z,126.70
2022-08-05T02:25:50.273Z,166.45
2022-08-05T02:28:54.898Z,138.82
2022-08-05T02:32:00.705Z,137.05
2022-08-05T02:35:14.275Z,318.83
2022-08-05T02:38:19.452Z,113.10
2022-08-05T02:41:29.025Z,176.63
2022-08-05T02:44:40.837Z,106.65
2022-08-05T02:48:06.792Z,79.72
2022-08-05T02:51:07.780Z,92.32
2022-08-05T02:54:36.207Z,71.93
2022-08-05T02:58:09.384Z,110.22
2022-08-05T03:01:02.902Z,62.03
2022-08-05T03:04:11.907Z,73.13
2022-08-05T03:07:40.315Z,68.45
2022-08-05T03:11:45.939Z,57.13
2022-08-05T03:14:08.280Z,52.00
2022-08-05T03:17:10.320Z,51.80
2022-08-05T03:20:13.629Z,43.35
2022-08-05T03:23:16.207Z,46.03
2022-08-05T03:26:31.682Z,47.97
2022-08-05T03:29:44.549Z,43.60
2022-08-05T03:32:47.310Z,38.58
2022-08-05T03:35:50.006Z,37.20
2022-08-05T03:38:53.794Z,35.35
2022-08-05T03:41:56.736Z,36.13
2022-08-05T03:44:58.657Z,35.17
2022-08-05T03:48:00.658Z,33.13
2022-08-05T03:52:49.473Z,30.40
2022-08-05T03:55:52.520Z,30.60
2022-08-05T03:58:15.666Z,29.65
2022-08-05T04:01:21.345Z,29.02
2022-08-05T04:04:26.555Z,31.05
2022-08-05T04:07:29.869Z,31.33
2022-08-05T04:10:38.329Z,34.03
2022-08-05T04:13:49.837Z,32.38
2022-08-05T04:16:55.576Z,30.65
2022-08-05T04:19:58.694Z,29.38
2022-08-05T04:23:00.747Z,30.20
2022-08-05T04:26:04.196Z,29.33
2022-08-05T04:32:10.263Z,30.27
2022-08-05T04:35:17.363Z,31.20
2022-08-05T04:38:21.467Z,28.50
2022-08-05T04:41:41.466Z,26.85
2022-08-05T04:44:43.851Z,25.48
2022-08-05T04:47:47.234Z,27.88
2022-08-05T04:51:03.097Z,27.63
2022-08-05T04:54:12.385Z,28.67
2022-08-05T04:57:14.409Z,27.27
2022-08-05T05:00:16.767Z,28.00
2022-08-05T05:03:20.334Z,28.33
2022-08-05T05:06:38.724Z,25.95
2022-08-05T05:09:44.208Z,26.27
2022-08-05T05:12:46.407Z,25.00
2022-08-05T05:15:56.568Z,24.58
2022-08-05T05:19:18.898Z,24.40
2022-08-05T05:22:24.382Z,23.52
2022-08-05T05:25:33.021Z,22.65
2022-08-05T05:28:44.965Z,23.17
2022-08-05T05:31:47.239Z,21.35
2022-08-05T05:34:52.479Z,25.58
2022-08-05T05:38:00.067Z,20.92
2022-08-05T05:41:03.250Z,21.70
2022-08-05T05:44:36.811Z,20.52
2022-08-05T05:48:06.907Z,21.35
2022-08-05T05:50:54.069Z,22.70
2022-08-05T05:53:59.534Z,23.17
2022-08-05T05:57:02.185Z,23.52
2022-08-05T06:00:07.370Z,22.65
2022-08-05T06:03:40.742Z,22.17
2022-08-05T06:06:34.817Z,21.05
2022-08-05T06:10:00.546Z,22.92
2022-08-05T06:13:01.297Z,24.30
2022-08-05T06:16:29.592Z,24.63
2022-08-05T06:19:34.290Z,23.75
2022-08-05T06:22:37.644Z,24.98
2022-08-05T06:26:12.114Z,23.95
2022-08-05T06:29:23.636Z,26.00
2022-08-05T06:32:29.427Z,25.27
2022-08-05T06:36:07.702Z,23.80
2022-08-05T06:38:54.791Z,23.90
2022-08-05T06:42:04.019Z,25.15
2022-08-05T06:45:08.793Z,23.45
2022-08-05T06:48:35.893Z,25.52
2022-08-05T06:51:33.073Z,24.98
2022-08-05T06:54:35.959Z,24.10
2022-08-05T06:58:03.356Z,25.63
2022-08-05T07:01:04.681Z,25.05
2022-08-05T07:04:06.640Z,25.60
2022-08-05T07:07:09.930Z,25.58
2022-08-05T07:10:14.901Z,27.07
2022-08-05T07:13:59.344Z,25.98
2022-08-05T07:17:58.470Z,25.25
2022-08-05T07:20:38.957Z,25.33
2022-08-05T07:23:49.951Z,25.05
2022-08-05T07:26:54.372Z,24.52
2022-08-05T07:30:24.441Z,25.02
2022-08-05T07:33:37.002Z,24.02
2022-08-05T07:36:39.755Z,23.40
2022-08-05T07:40:04.493Z,23.83
2022-08-05T07:43:20.528Z,23.20
2022-08-05T07:46:25.378Z,23.75
2022-08-05T07:49:27.692Z,24.50
2022-08-05T07:52:30.601Z,22.88
2022-08-05T07:56:05.830Z,25.35
2022-08-05T07:58:59.197Z,23.88
2022-08-05T08:02:03.209Z,22.02
2022-08-05T08:05:05.721Z,20.98
2022-08-05T08:08:07.657Z,23.23
2022-08-05T08:11:15.999Z,23.10
2022-08-05T08:14:18.435Z,23.85
2022-08-05T08:20:43.616Z,24.48
2022-08-05T08:27:07.502Z,23.30
2022-08-05T08:30:20.210Z,24.65
2022-08-05T08:33:37.730Z,24.77
2022-08-05T08:36:49.103Z,25.80
2022-08-05T08:39:54.534Z,26.48
2022-08-05T08:42:56.883Z,27.38
2022-08-05T08:46:19.381Z,26.20
2022-08-05T08:50:13.209Z,25.52
2022-08-05T08:52:53.708Z,24.35
2022-08-05T08:56:03.979Z,23.83
2022-08-05T08:59:14.695Z,22.38
2022-08-05T09:02:26.663Z,23.02
2022-08-05T09:05:38.826Z,22.95
2022-08-05T09:08:51.003Z,23.17
2022-08-05T09:11:55.351Z,21.50
2022-08-05T09:15:06.105Z,20.35
2022-08-05T09:18:10.263Z,21.90
2022-08-05T09:21:20.640Z,21.58
2022-08-05T09:24:24.941Z,21.40
2022-08-05T09:28:05.094Z,22.42
2022-08-05T09:31:22.570Z,20.50
2022-08-05T09:34:53.313Z,20.10
2022-08-05T09:38:17.207Z,22.80
2022-08-05T09:41:18.927Z,22.05
2022-08-05T09:44:41.180Z,20.60
2022-08-05T09:47:55.446Z,21.63
2022-08-05T09:51:04.654Z,20.48
2022-08-05T09:54:21.343Z,21.90
2022-08-05T09:57:40.082Z,21.10
2022-08-05T10:01:14.678Z,21.58
2022-08-05T10:04:18.447Z,21.27
2022-08-05T10:08:10.767Z,20.55
2022-08-05T10:10:45.605Z,19.90
2022-08-05T10:13:54.694Z,19.23
2022-08-05T10:16:58.840Z,18.90
2022-08-05T10:20:10.121Z,19.10
2022-08-05T10:23:34.473Z,18.67
2022-08-05T10:26:51.934Z,17.60
2022-08-05T10:30:06.881Z,19.55
2022-08-05T10:33:17.635Z,19.02
2022-08-05T10:36:23.738Z,18.90
2022-08-05T10:40:03.845Z,16.45
2022-08-05T10:43:15.499Z,17.30
2022-08-05T10:46:19.476Z,17.60
2022-08-05T10:49:33.505Z,17.20
2022-08-05T10:53:01.142Z,17.50
2022-08-05T10:56:25.757Z,16.73
2022-08-05T11:00:03.154Z,15.63
2022-08-05T11:03:23.557Z,19.08
2022-08-05T11:06:30.859Z,19.08
2022-08-05T11:09:46.592Z,15.05
2022-08-05T11:12:50.330Z,16.92
2022-08-05T11:16:23.432Z,15.55
2022-08-05T11:20:10.193Z,14.40
2022-08-05T11:23:33.343Z,15.13
2022-08-05T11:26:37.436Z,14.25
2022-08-05T11:29:41.707Z,14.18
2022-08-05T11:32:43.681Z,14.27
2022-08-05T11:36:07.671Z,13.52
2022-08-05T11:39:14.308Z,13.75
2022-08-05T11:42:22.487Z,13.05
2022-08-05T11:46:16.088Z,12.40
2022-08-05T11:48:52.394Z,12.00
2022-08-05T11:51:55.022Z,12.85
2022-08-05T11:55:07.062Z,11.98
2022-08-05T11:58:12.060Z,13.48
2022-08-05T12:01:21.631Z,12.05
2022-08-05T12:04:25.481Z,12.55
2022-08-05T12:08:02.656Z,12.20
2022-08-05T12:10:58.824Z,11.90
2022-08-05T12:14:08.354Z,11.48
2022-08-05T12:18:00.741Z,11.30
2022-08-05T12:20:38.788Z,12.07
2022-08-05T12:23:51.201Z,12.35
2022-08-05T12:26:54.419Z,11.97
2022-08-05T12:30:07.400Z,11.85
2022-08-05T12:33:35.961Z,13.68
2022-08-05T12:36:32.163Z,11.13
2022-08-05T12:39:38.747Z,10.88
2022-08-05T12:42:41.017Z,13.15
2022-08-05T12:45:58.949Z,15.45
2022-08-05T12:49:12.997Z,14.15
2022-08-05T12:52:25.316Z,14.07
2022-08-05T12:55:32.654Z,12.48
2022-08-05T12:58:49.373Z,14.75
2022-08-05T13:02:07.676Z,9.75
2022-08-05T13:05:12.543Z,8.82
2022-08-05T13:08:18.854Z,8.05
2022-08-05T13:12:02.817Z,8.98
2022-08-05T13:15:05.122Z,8.05
2022-08-05T13:18:08.827Z,7.55
2022-08-05T13:21:11.913Z,7.85
2022-08-05T13:24:27.500Z,8.95
2022-08-05T13:27:41.785Z,9.60
2022-08-05T13:30:43.825Z,12.27
2022-08-05T13:34:24.326Z,12.93
2022-08-05T13:37:12.274Z,13.93
2022-08-05T13:40:27.471Z,14.77
2022-08-05T13:43:44.590Z,13.98
2022-08-05T13:47:02.326Z,14.18
2022-08-05T13:50:13.542Z,15.25
2022-08-05T13:53:18.350Z,14.55
2022-08-05T13:56:20.771Z,14.23
2022-08-05T13:59:27.127Z,15.57
2022-08-05T14:02:32.519Z,15.77
2022-08-05T14:06:04.721Z,16.63
2022-08-05T14:08:59.495Z,16.83
2022-08-05T14:12:17.233Z,17.38
2022-08-05T14:16:08.068Z,16.65
2022-08-05T14:18:42.263Z,15.60
2022-08-05T14:22:09.308Z,16.20
2022-08-05T14:25:21.858Z,18.73
2022-08-05T14:28:26.073Z,18.05
2022-08-05T14:31:54.281Z,19.10
2022-08-05T14:34:51.248Z,19.65
2022-08-05T14:37:55.397Z,16.73
2022-08-05T14:40:57.905Z,15.93
2022-08-05T14:44:09.608Z,9.98
2022-08-05T14:47:12.233Z,9.90
2022-08-05T14:50:19.102Z,10.15
2022-08-05T14:53:21.528Z,7.90
2022-08-05T14:56:23.976Z,7.68
2022-08-05T14:59:29.578Z,8.85
2022-08-05T15:02:37.477Z,7.07
2022-08-05T15:06:07.426Z,10.40
2022-08-05T15:09:04.295Z,7.15
2022-08-05T15:12:06.846Z,11.13
2022-08-05T15:15:15.423Z,6.88
2022-08-05T15:18:17.756Z,7.47
2022-08-05T15:21:20.960Z,10.85
2022-08-05T15:24:24.757Z,6.78
2022-08-05T15:27:32.219Z,11.65
2022-08-05T15:30:38.123Z,10.27
2022-08-05T15:34:18.754Z,9.40
2022-08-05T15:37:06.978Z,9.88
2022-08-05T15:41:01.611Z,5.38
2022-08-05T15:43:45.741Z,5.72
2022-08-05T15:46:49.235Z,5.50
2022-08-05T15:49:59.134Z,6.28
2022-08-05T15:53:04.137Z,4.72
2022-08-05T15:56:14.080Z,8.57
2022-08-05T15:59:22.301Z,8.98
2022-08-05T16:02:26.187Z,8.57
2022-08-05T16:05:30.704Z,6.93
2022-08-05T16:08:32.626Z,10.57
2022-08-05T16:11:42.545Z,5.07
2022-08-05T16:14:45.485Z,7.40
2022-08-05T16:17:57.396Z,6.15
2022-08-05T16:21:04.387Z,7.75
2022-08-05T16:24:12.916Z,7.72
2022-08-05T16:27:46.870Z,7.72
2022-08-05T16:30:52.995Z,7.13
2022-08-05T16:33:57.155Z,7.18
2022-08-05T16:36:59.218Z,8.48
2022-08-05T16:40:06.424Z,7.30
2022-08-05T16:43:09.429Z,8.23
2022-08-05T16:46:23.703Z,9.33
2022-08-05T16:49:26.897Z,10.50
2022-08-05T16:52:33.376Z,10.02
2022-08-05T16:55:47.155Z,10.88
2022-08-05T16:58:49.777Z,14.52
2022-08-05T17:01:53.671Z,12.97
2022-08-05T17:04:57.545Z,11.10
2022-08-05T17:07:59.592Z,11.77
2022-08-05T17:11:08.742Z,11.27
2022-08-05T17:14:12.939Z,10.10
2022-08-05T17:17:15.434Z,12.00
2022-08-05T17:20:17.463Z,11.43
2022-08-05T17:24:03.155Z,12.35
2022-08-05T17:26:42.093Z,11.23
2022-08-05T17:29:44.541Z,11.82
2022-08-05T17:32:48.521Z,10.23
2022-08-05T17:36:07.741Z,8.20
2022-08-05T17:39:24.161Z,7.78
2022-08-05T17:42:33.346Z,6.75
2022-08-05T17:45:38.686Z,7.05
2022-08-05T17:48:43.248Z,6.45
2022-08-05T17:51:47.291Z,6.70
2022-08-05T17:54:52.789Z,6.60
2022-08-05T17:57:55.863Z,7.15
2022-08-05T18:00:57.803Z,7.77
2022-08-05T18:04:04.708Z,7.03
2022-08-05T18:07:07.980Z,7.82
2022-08-05T18:10:21.060Z,8.30
2022-08-05T18:13:23.439Z,7.57
2022-08-05T18:16:27.816Z,7.43
2022-08-05T18:19:30.204Z,7.25
2022-08-05T18:22:46.129Z,7.68
2022-08-05T18:25:57.553Z,8.05
2022-08-05T18:29:01.364Z,7.18
2022-08-05T18:32:03.450Z,7.95
2022-08-05T18:35:05.762Z,8.52
2022-08-05T18:38:08.334Z,8.80
2022-08-05T18:41:55.543Z,8.15
2022-08-05T18:44:35.378Z,8.15
2022-08-05T18:47:56.342Z,9.35
2022-08-05T18:54:45.993Z,9.95
2022-08-05T18:57:52.725Z,10.52
2022-08-05T19:00:57.516Z,10.70
2022-08-05T19:03:59.828Z,10.98
2022-08-05T19:07:02.000Z,13.32
2022-08-05T19:10:09.428Z,12.43
2022-08-05T19:13:15.691Z,13.13
2022-08-05T19:16:25.494Z,12.43
2022-08-05T19:19:32.133Z,13.68
2022-08-05T19:22:35.972Z,13.52
2022-08-05T19:25:43.723Z,14.60
2022-08-05T19:28:46.453Z,15.48
2022-08-05T19:31:50.897Z,15.25
2022-08-05T19:34:55.034Z,16.27
2022-08-05T19:38:06.069Z,14.95
2022-08-05T19:41:10.105Z,15.95
2022-08-05T19:47:16.741Z,16.38
2022-08-05T19:50:20.128Z,16.67
2022-08-05T19:54:03.345Z,16.55
2022-08-05T19:56:44.608Z,16.73
2022-08-05T20:00:00.864Z,17.42
2022-08-05T20:03:05.401Z,16.90
2022-08-05T20:06:15.519Z,18.45
2022-08-05T20:09:18.019Z,18.55
2022-08-05T20:12:19.978Z,17.45
2022-08-05T20:15:51.997Z,17.48
2022-08-05T20:18:45.100Z,18.45
2022-08-05T20:21:47.117Z,17.58
2022-08-05T20:24:51.840Z,18.40
2022-08-05T20:27:55.774Z,18.55
2022-08-05T20:30:59.549Z,17.40
2022-08-05T20:34:01.490Z,17.90
2022-08-05T20:37:03.437Z,17.42
2022-08-05T20:40:06.313Z,18.55
2022-08-05T20:43:08.765Z,19.80
2022-08-05T20:46:24.825Z,19.52
2022-08-05T20:49:27.657Z,19.35
2022-08-05T20:52:30.216Z,20.50
2022-08-05T20:55:54.978Z,19.50
2022-08-05T21:02:02.145Z,20.80
2022-08-05T21:05:06.490Z,20.65
2022-08-05T21:08:11.365Z,21.27
2022-08-05T21:12:04.516Z,20.55
2022-08-05T21:14:35.960Z,20.70
2022-08-05T21:17:38.546Z,21.00
2022-08-05T21:20:40.563Z,22.35
2022-08-05T21:23:46.681Z,21.92
2022-08-05T21:26:58.539Z,21.70
2022-08-05T21:30:01.990Z,22.73
2022-08-05T21:33:07.243Z,22.05
2022-08-05T21:36:13.251Z,22.30
2022-08-05T21:39:27.007Z,23.50
2022-08-05T21:42:44.148Z,23.50
2022-08-05T21:45:56.520Z,23.00
2022-08-05T21:48:59.936Z,23.40
2022-08-05T21:52:16.658Z,25.17
2022-08-05T21:56:01.023Z,24.75
2022-08-05T21:58:56.919Z,26.77
2022-08-05T22:01:59.819Z,25.63
2022-08-05T22:05:01.833Z,26.67
2022-08-05T22:08:06.417Z,28.30
2022-08-05T22:11:34.753Z,30.52
2022-08-05T22:14:38.819Z,27.92
2022-08-05T22:20:58.769Z,25.88
2022-08-05T22:24:40.730Z,28.43
2022-08-05T22:28:08.276Z,27.83
2022-08-05T22:31:07.131Z,26.38
2022-08-05T22:34:09.100Z,27.40
2022-08-05T22:37:14.875Z,24.10
2022-08-05T22:40:20.335Z,23.60
2022-08-05T22:43:36.211Z,25.52
2022-08-05T22:46:41.089Z,25.92
2022-08-05T22:50:17.922Z,27.63
2022-08-05T22:53:09.818Z,27.33
2022-08-05T22:56:12.539Z,27.60
2022-08-05T22:59:45.399Z,27.25
2022-08-05T23:02:40.092Z,28.63
2022-08-05T23:05:49.772Z,28.10
2022-08-05T23:08:52.296Z,28.13
2022-08-05T23:11:54.370Z,28.50
2022-08-05T23:14:56.404Z,27.45
2022-08-05T23:18:01.056Z,26.17
2022-08-05T23:21:04.613Z,26.98
2022-08-05T23:24:11.182Z,28.50
2022-08-05T23:27:13.875Z,27.85
2022-08-05T23:30:17.296Z,27.40
2022-08-05T23:33:25.889Z,27.30
2022-08-05T23:36:44.919Z,26.85
2022-08-05T23:39:54.234Z,27.80
2022-08-05T23:42:56.743Z,26.60
2022-08-05T23:45:58.686Z,28.15
2022-08-05T23:49:02.140Z,28.50
2022-08-05T23:52:27.781Z,28.50
2022-08-05T23:55:31.074Z,28.77
2022-08-05T23:58:33.413Z,30.02
